CheckWX is a tool to help pilots better visualize weather data.  It is not intended as a substitute for an official pre-flight weather briefing.

03:26:22 UTC

ENRS METAR
Røst Airport
Norway
Current

10 hours ago

ENRS 261750Z 27007KT FEW018 SCT070 05/M01 Q0999
Observed
May-26 @ 17:50 UTC
Wind
  • 270° at 7 KTS
Visibility
Cloud Levels
  • Few at 1,800' AGL
  • Scattered at 7,000' AGL
Temperature
C / 41°F
Dewpoint
-1°C / 30°F
Humidity
66%
Altimeter
29.5" Hg
Pressure
998.92 hPa
Previous

10 hours ago

ENRS 261720Z 28006KT SCT018 SCT070 06/01 Q0999
Observed
May-26 @ 17:20 UTC
Wind
  • 280° at 6 KTS
Visibility
Cloud Levels
  • Scattered at 1,800' AGL
  • Scattered at 7,000' AGL
Temperature
C / 43°F
Dewpoint
C / 34°F
Humidity
71%
Altimeter
29.5" Hg
Pressure
998.92 hPa
Previous

11 hours ago

ENRS 261650Z 28005KT FEW018 SCT070 05/00 Q0999
Observed
May-26 @ 16:50 UTC
Wind
  • 280° at 5 KTS
Visibility
Cloud Levels
  • Few at 1,800' AGL
  • Scattered at 7,000' AGL
Temperature
C / 41°F
Dewpoint
C / 32°F
Humidity
70%
Altimeter
29.5" Hg
Pressure
998.92 hPa